sensor_id;sensor_type;location;lat;lon;timestamp;P1;durP1;ratioP1;P2;durP2;ratioP2
33188;SDS011;52601;53.070;10.600;2022-11-15T01:37:34;9.77;;;5.80;;
33188;SDS011;52601;53.070;10.600;2022-11-15T01:40:57;9.35;;;5.90;;
33188;SDS011;52601;53.070;10.600;2022-11-15T01:44:53;10.95;;;5.93;;
33188;SDS011;52601;53.070;10.600;2022-11-15T01:48:03;12.00;;;6.38;;
33188;SDS011;52601;53.070;10.600;2022-11-15T01:51:23;8.55;;;5.07;;
33188;SDS011;52601;53.070;10.600;2022-11-15T01:54:48;10.20;;;6.03;;
33188;SDS011;52601;53.070;10.600;2022-11-15T01:58:18;9.63;;;5.53;;
33188;SDS011;52601;53.070;10.600;2022-11-15T02:01:23;10.55;;;6.68;;
33188;SDS011;52601;53.070;10.600;2022-11-15T02:04:51;10.70;;;5.53;;
33188;SDS011;52601;53.070;10.600;2022-11-15T02:07:59;9.90;;;5.80;;
33188;SDS011;52601;53.070;10.600;2022-11-15T02:11:16;9.35;;;5.80;;
33188;SDS011;52601;53.070;10.600;2022-11-15T02:14:32;12.48;;;5.97;;
33188;SDS011;52601;53.070;10.600;2022-11-15T02:21:20;9.98;;;5.75;;
33188;SDS011;52601;53.070;10.600;2022-11-15T02:29:01;7.72;;;5.00;;
33188;SDS011;52601;53.070;10.600;2022-11-15T02:35:47;8.73;;;5.38;;
33188;SDS011;52601;53.070;10.600;2022-11-15T02:42:28;9.60;;;6.25;;
33188;SDS011;52601;53.070;10.600;2022-11-15T02:46:03;9.75;;;5.93;;
33188;SDS011;52601;53.070;10.600;2022-11-15T02:49:31;9.35;;;5.88;;
33188;SDS011;52601;53.070;10.600;2022-11-15T02:55:59;10.10;;;6.30;;
33188;SDS011;52601;53.070;10.600;2022-11-15T03:17:06;10.93;;;6.47;;
33188;SDS011;52601;53.070;10.600;2022-11-15T03:20:18;11.43;;;5.53;;
33188;SDS011;52601;53.070;10.600;2022-11-15T03:23:39;9.50;;;5.97;;
33188;SDS011;52601;53.070;10.600;2022-11-15T03:27:09;9.57;;;5.90;;
33188;SDS011;52601;53.070;10.600;2022-11-15T03:30:09;9.50;;;6.07;;
33188;SDS011;52601;53.070;10.600;2022-11-15T03:33:19;8.27;;;5.68;;
33188;SDS011;52601;53.070;10.600;2022-11-15T03:36:38;9.48;;;6.10;;
33188;SDS011;52601;53.070;10.600;2022-11-15T03:39:49;8.38;;;5.57;;
33188;SDS011;52601;53.070;10.600;2022-11-15T03:43:09;9.57;;;5.60;;
33188;SDS011;52601;53.070;10.600;2022-11-15T03:46:32;9.23;;;5.88;;
33188;SDS011;52601;53.070;10.600;2022-11-15T03:49:35;9.77;;;5.65;;
33188;SDS011;52601;53.070;10.600;2022-11-15T03:52:45;10.20;;;5.82;;
33188;SDS011;52601;53.070;10.600;2022-11-15T03:56:15;10.10;;;5.63;;
33188;SDS011;52601;53.070;10.600;2022-11-15T03:59:48;12.40;;;5.93;;
33188;SDS011;52601;53.070;10.600;2022-11-15T04:03:15;9.52;;;5.85;;
33188;SDS011;52601;53.070;10.600;2022-11-15T04:06:09;9.75;;;6.20;;
33188;SDS011;52601;53.070;10.600;2022-11-15T04:09:18;9.50;;;5.47;;
33188;SDS011;52601;53.070;10.600;2022-11-15T04:12:43;8.05;;;5.10;;
33188;SDS011;52601;53.070;10.600;2022-11-15T04:16:00;8.20;;;5.43;;
33188;SDS011;52601;53.070;10.600;2022-11-15T04:19:13;8.70;;;5.38;;
33188;SDS011;52601;53.070;10.600;2022-11-15T04:22:27;8.57;;;5.55;;
33188;SDS011;52601;53.070;10.600;2022-11-15T04:25:59;8.85;;;5.40;;
33188;SDS011;52601;53.070;10.600;2022-11-15T04:29:31;9.93;;;6.03;;
33188;SDS011;52601;53.070;10.600;2022-11-15T04:32:43;8.98;;;5.53;;
33188;SDS011;52601;53.070;10.600;2022-11-15T04:36:13;10.20;;;5.38;;
33188;SDS011;52601;53.070;10.600;2022-11-15T04:39:46;10.38;;;5.90;;
33188;SDS011;52601;53.070;10.600;2022-11-15T04:43:10;10.55;;;5.78;;
33188;SDS011;52601;53.070;10.600;2022-11-15T04:46:16;10.77;;;6.00;;
33188;SDS011;52601;53.070;10.600;2022-11-15T04:49:18;10.27;;;5.88;;
33188;SDS011;52601;53.070;10.600;2022-11-15T04:52:51;10.17;;;5.70;;
33188;SDS011;52601;53.070;10.600;2022-11-15T04:56:05;8.23;;;5.13;;
33188;SDS011;52601;53.070;10.600;2022-11-15T04:59:26;11.40;;;5.72;;
33188;SDS011;52601;53.070;10.600;2022-11-15T05:06:21;10.07;;;5.40;;
33188;SDS011;52601;53.070;10.600;2022-11-15T05:09:22;9.57;;;5.57;;
33188;SDS011;52601;53.070;10.600;2022-11-15T05:16:13;9.10;;;5.53;;
33188;SDS011;52601;53.070;10.600;2022-11-15T05:19:24;9.82;;;5.90;;
33188;SDS011;52601;53.070;10.600;2022-11-15T05:22:55;9.00;;;5.50;;
33188;SDS011;52601;53.070;10.600;2022-11-15T05:26:06;9.80;;;5.88;;
33188;SDS011;52601;53.070;10.600;2022-11-15T05:29:17;10.10;;;5.80;;
33188;SDS011;52601;53.070;10.600;2022-11-15T05:32:36;10.50;;;6.27;;
33188;SDS011;52601;53.070;10.600;2022-11-15T05:36:15;10.70;;;6.47;;
33188;SDS011;52601;53.070;10.600;2022-11-15T05:39:29;12.07;;;6.73;;
33188;SDS011;52601;53.070;10.600;2022-11-15T05:42:30;11.05;;;6.30;;
33188;SDS011;52601;53.070;10.600;2022-11-15T05:45:37;9.02;;;5.70;;
33188;SDS011;52601;53.070;10.600;2022-11-15T05:48:58;10.48;;;6.22;;
33188;SDS011;52601;53.070;10.600;2022-11-15T05:55:37;9.68;;;5.50;;
33188;SDS011;52601;53.070;10.600;2022-11-15T05:58:24;9.40;;;5.55;;
33188;SDS011;52601;53.070;10.600;2022-11-15T06:01:09;9.25;;;5.18;;
33188;SDS011;52601;53.070;10.600;2022-11-15T06:03:55;8.52;;;5.25;;
33188;SDS011;52601;53.070;10.600;2022-11-15T06:06:41;8.25;;;5.15;;
33188;SDS011;52601;53.070;10.600;2022-11-15T06:09:26;7.90;;;4.65;;
33188;SDS011;52601;53.070;10.600;2022-11-15T06:12:11;10.38;;;6.00;;
33188;SDS011;52601;53.070;10.600;2022-11-15T06:14:57;9.25;;;5.38;;
33188;SDS011;52601;53.070;10.600;2022-11-15T06:17:45;9.98;;;5.50;;
33188;SDS011;52601;53.070;10.600;2022-11-15T06:20:30;10.40;;;5.80;;
33188;SDS011;52601;53.070;10.600;2022-11-15T06:23:16;10.43;;;5.82;;
33188;SDS011;52601;53.070;10.600;2022-11-15T06:26:02;10.15;;;5.70;;
33188;SDS011;52601;53.070;10.600;2022-11-15T06:28:48;9.82;;;5.25;;
33188;SDS011;52601;53.070;10.600;2022-11-15T06:31:34;8.83;;;5.07;;
33188;SDS011;52601;53.070;10.600;2022-11-15T06:34:19;9.60;;;5.97;;
33188;SDS011;52601;53.070;10.600;2022-11-15T06:37:05;8.15;;;5.32;;
33188;SDS011;52601;53.070;10.600;2022-11-15T06:39:51;10.10;;;6.32;;
33188;SDS011;52601;53.070;10.600;2022-11-15T06:42:36;9.17;;;4.77;;
33188;SDS011;52601;53.070;10.600;2022-11-15T06:45:22;10.70;;;5.40;;
33188;SDS011;52601;53.070;10.600;2022-11-15T06:48:07;8.98;;;5.63;;
33188;SDS011;52601;53.070;10.600;2022-11-15T06:50:57;9.10;;;5.43;;
33188;SDS011;52601;53.070;10.600;2022-11-15T06:53:44;10.77;;;5.93;;
33188;SDS011;52601;53.070;10.600;2022-11-15T06:56:34;8.65;;;5.57;;
33188;SDS011;52601;53.070;10.600;2022-11-15T06:59:22;9.93;;;5.85;;
33188;SDS011;52601;53.070;10.600;2022-11-15T07:02:17;9.98;;;5.57;;
33188;SDS011;52601;53.070;10.600;2022-11-15T07:05:06;9.55;;;5.30;;
33188;SDS011;52601;53.070;10.600;2022-11-15T07:07:52;10.55;;;6.03;;
33188;SDS011;52601;53.070;10.600;2022-11-15T07:10:39;10.73;;;5.75;;
33188;SDS011;52601;53.070;10.600;2022-11-15T07:13:25;9.68;;;5.60;;
33188;SDS011;52601;53.070;10.600;2022-11-15T07:16:12;6.85;;;4.63;;
33188;SDS011;52601;53.070;10.600;2022-11-15T07:18:57;7.03;;;5.32;;
33188;SDS011;52601;53.070;10.600;2022-11-15T07:21:43;10.23;;;5.50;;
33188;SDS011;52601;53.070;10.600;2022-11-15T07:24:28;8.68;;;5.43;;
33188;SDS011;52601;53.070;10.600;2022-11-15T07:27:15;7.78;;;4.85;;
33188;SDS011;52601;53.070;10.600;2022-11-15T07:30:01;7.03;;;4.70;;
33188;SDS011;52601;53.070;10.600;2022-11-15T07:32:46;6.88;;;4.13;;
33188;SDS011;52601;53.070;10.600;2022-11-15T07:35:32;7.43;;;4.40;;
33188;SDS011;52601;53.070;10.600;2022-11-15T07:38:27;7.15;;;4.60;;
33188;SDS011;52601;53.070;10.600;2022-11-15T07:41:13;6.03;;;3.63;;
33188;SDS011;52601;53.070;10.600;2022-11-15T07:43:58;6.47;;;3.80;;
33188;SDS011;52601;53.070;10.600;2022-11-15T07:46:44;8.15;;;4.18;;
33188;SDS011;52601;53.070;10.600;2022-11-15T07:49:29;6.53;;;3.90;;
33188;SDS011;52601;53.070;10.600;2022-11-15T07:52:22;6.97;;;3.60;;
33188;SDS011;52601;53.070;10.600;2022-11-15T07:55:08;8.35;;;3.88;;
33188;SDS011;52601;53.070;10.600;2022-11-15T07:57:59;6.03;;;3.13;;
33188;SDS011;52601;53.070;10.600;2022-11-15T08:00:48;4.97;;;3.55;;
33188;SDS011;52601;53.070;10.600;2022-11-15T08:03:34;6.60;;;3.42;;
33188;SDS011;52601;53.070;10.600;2022-11-15T08:06:21;6.20;;;3.77;;
33188;SDS011;52601;53.070;10.600;2022-11-15T08:09:06;6.15;;;3.78;;
33188;SDS011;52601;53.070;10.600;2022-11-15T08:11:51;6.25;;;4.03;;
33188;SDS011;52601;53.070;10.600;2022-11-15T08:14:37;7.20;;;4.27;;
33188;SDS011;52601;53.070;10.600;2022-11-15T08:17:23;6.72;;;4.03;;
33188;SDS011;52601;53.070;10.600;2022-11-15T08:20:09;7.43;;;4.23;;
33188;SDS011;52601;53.070;10.600;2022-11-15T08:22:55;8.40;;;3.88;;
33188;SDS011;52601;53.070;10.600;2022-11-15T08:25:45;5.20;;;3.03;;
33188;SDS011;52601;53.070;10.600;2022-11-15T08:28:31;5.82;;;3.33;;
33188;SDS011;52601;53.070;10.600;2022-11-15T08:31:17;5.35;;;3.30;;
33188;SDS011;52601;53.070;10.600;2022-11-15T08:34:03;5.80;;;2.97;;
33188;SDS011;52601;53.070;10.600;2022-11-15T08:36:50;5.30;;;3.42;;
33188;SDS011;52601;53.070;10.600;2022-11-15T08:39:35;6.10;;;3.67;;
33188;SDS011;52601;53.070;10.600;2022-11-15T08:42:21;6.13;;;3.28;;
33188;SDS011;52601;53.070;10.600;2022-11-15T08:45:07;4.50;;;3.20;;
33188;SDS011;52601;53.070;10.600;2022-11-15T08:47:53;4.25;;;2.90;;
33188;SDS011;52601;53.070;10.600;2022-11-15T08:50:39;4.68;;;3.00;;
33188;SDS011;52601;53.070;10.600;2022-11-15T08:53:24;4.80;;;3.22;;
33188;SDS011;52601;53.070;10.600;2022-11-15T08:56:11;3.90;;;2.80;;
33188;SDS011;52601;53.070;10.600;2022-11-15T08:58:58;7.93;;;2.90;;
33188;SDS011;52601;53.070;10.600;2022-11-15T09:01:43;7.32;;;3.63;;
33188;SDS011;52601;53.070;10.600;2022-11-15T09:04:29;5.80;;;3.00;;
33188;SDS011;52601;53.070;10.600;2022-11-15T09:07:14;5.72;;;3.50;;
33188;SDS011;52601;53.070;10.600;2022-11-15T09:10:00;6.55;;;3.78;;
33188;SDS011;52601;53.070;10.600;2022-11-15T09:12:46;4.80;;;3.13;;
33188;SDS011;52601;53.070;10.600;2022-11-15T09:15:33;5.35;;;3.38;;
33188;SDS011;52601;53.070;10.600;2022-11-15T09:18:19;6.10;;;3.22;;
33188;SDS011;52601;53.070;10.600;2022-11-15T09:21:07;4.60;;;3.45;;
33188;SDS011;52601;53.070;10.600;2022-11-15T09:23:53;8.88;;;3.63;;
33188;SDS011;52601;53.070;10.600;2022-11-15T09:26:39;6.40;;;3.10;;
33188;SDS011;52601;53.070;10.600;2022-11-15T09:29:26;4.68;;;3.30;;
33188;SDS011;52601;53.070;10.600;2022-11-15T09:32:11;7.43;;;3.60;;
33188;SDS011;52601;53.070;10.600;2022-11-15T09:34:57;5.57;;;3.58;;
33188;SDS011;52601;53.070;10.600;2022-11-15T09:37:43;6.07;;;3.10;;
33188;SDS011;52601;53.070;10.600;2022-11-15T09:40:29;6.03;;;3.10;;
33188;SDS011;52601;53.070;10.600;2022-11-15T09:43:27;4.60;;;3.20;;
33188;SDS011;52601;53.070;10.600;2022-11-15T09:46:21;5.63;;;3.37;;
33188;SDS011;52601;53.070;10.600;2022-11-15T09:49:35;6.10;;;3.08;;
33188;SDS011;52601;53.070;10.600;2022-11-15T09:52:21;5.80;;;3.17;;
33188;SDS011;52601;53.070;10.600;2022-11-15T09:55:08;5.95;;;3.05;;
33188;SDS011;52601;53.070;10.600;2022-11-15T09:58:16;4.30;;;2.65;;
33188;SDS011;52601;53.070;10.600;2022-11-15T10:01:33;6.10;;;2.70;;
33188;SDS011;52601;53.070;10.600;2022-11-15T10:04:29;5.00;;;2.95;;
33188;SDS011;52601;53.070;10.600;2022-11-15T10:07:19;5.68;;;2.83;;
33188;SDS011;52601;53.070;10.600;2022-11-15T10:10:13;5.75;;;2.95;;
33188;SDS011;52601;53.070;10.600;2022-11-15T10:13:00;3.60;;;2.45;;
33188;SDS011;52601;53.070;10.600;2022-11-15T10:15:45;3.90;;;2.50;;
33188;SDS011;52601;53.070;10.600;2022-11-15T10:18:44;4.93;;;2.40;;
33188;SDS011;52601;53.070;10.600;2022-11-15T10:25:09;4.88;;;2.70;;
33188;SDS011;52601;53.070;10.600;2022-11-15T10:28:22;3.45;;;2.10;;
33188;SDS011;52601;53.070;10.600;2022-11-15T10:31:22;3.88;;;2.30;;
33188;SDS011;52601;53.070;10.600;2022-11-15T10:34:17;4.30;;;2.50;;
33188;SDS011;52601;53.070;10.600;2022-11-15T10:37:05;3.35;;;2.20;;
33188;SDS011;52601;53.070;10.600;2022-11-15T10:40:04;2.95;;;1.98;;
33188;SDS011;52601;53.070;10.600;2022-11-15T10:45:55;4.03;;;2.33;;
33188;SDS011;52601;53.070;10.600;2022-11-15T10:49:25;3.63;;;2.15;;
33188;SDS011;52601;53.070;10.600;2022-11-15T10:52:18;3.33;;;2.00;;
33188;SDS011;52601;53.070;10.600;2022-11-15T10:55:19;3.15;;;2.08;;
33188;SDS011;52601;53.070;10.600;2022-11-15T11:01:27;3.30;;;1.85;;
33188;SDS011;52601;53.070;10.600;2022-11-15T11:04:14;3.30;;;2.15;;
33188;SDS011;52601;53.070;10.600;2022-11-15T11:07:00;4.57;;;2.03;;
33188;SDS011;52601;53.070;10.600;2022-11-15T11:09:48;3.78;;;2.30;;
33188;SDS011;52601;53.070;10.600;2022-11-15T11:12:42;4.22;;;2.28;;
33188;SDS011;52601;53.070;10.600;2022-11-15T11:15:29;5.40;;;2.17;;
33188;SDS011;52601;53.070;10.600;2022-11-15T11:18:19;2.38;;;1.92;;
33188;SDS011;52601;53.070;10.600;2022-11-15T11:21:11;3.35;;;2.47;;
33188;SDS011;52601;53.070;10.600;2022-11-15T11:24:06;4.43;;;2.40;;
33188;SDS011;52601;53.070;10.600;2022-11-15T11:30:10;3.33;;;2.22;;
33188;SDS011;52601;53.070;10.600;2022-11-15T11:33:25;3.30;;;2.38;;
33188;SDS011;52601;53.070;10.600;2022-11-15T11:42:18;3.42;;;2.30;;
33188;SDS011;52601;53.070;10.600;2022-11-15T11:45:15;7.60;;;2.55;;
33188;SDS011;52601;53.070;10.600;2022-11-15T11:51:13;3.10;;;2.10;;
33188;SDS011;52601;53.070;10.600;2022-11-15T11:54:12;3.00;;;1.83;;
33188;SDS011;52601;53.070;10.600;2022-11-15T11:57:05;3.90;;;2.20;;
33188;SDS011;52601;53.070;10.600;2022-11-15T12:00:01;3.88;;;2.00;;
33188;SDS011;52601;53.070;10.600;2022-11-15T12:03:03;2.70;;;2.10;;
33188;SDS011;52601;53.070;10.600;2022-11-15T12:06:00;6.10;;;2.30;;
33188;SDS011;52601;53.070;10.600;2022-11-15T12:08:52;3.17;;;1.92;;
33188;SDS011;52601;53.070;10.600;2022-11-15T12:14:31;3.95;;;2.30;;
33188;SDS011;52601;53.070;10.600;2022-11-15T12:17:26;3.20;;;2.00;;
33188;SDS011;52601;53.070;10.600;2022-11-15T12:20:27;3.30;;;2.22;;
33188;SDS011;52601;53.070;10.600;2022-11-15T12:23:16;4.10;;;2.17;;
33188;SDS011;52601;53.070;10.600;2022-11-15T12:26:19;2.63;;;1.92;;
33188;SDS011;52601;53.070;10.600;2022-11-15T12:29:16;3.55;;;2.28;;
33188;SDS011;52601;53.070;10.600;2022-11-15T12:32:18;3.15;;;1.90;;
33188;SDS011;52601;53.070;10.600;2022-11-15T12:35:56;3.00;;;1.90;;
33188;SDS011;52601;53.070;10.600;2022-11-15T12:41:40;3.38;;;1.98;;
33188;SDS011;52601;53.070;10.600;2022-11-15T12:47:22;4.32;;;2.20;;
33188;SDS011;52601;53.070;10.600;2022-11-15T12:50:12;3.53;;;2.05;;
33188;SDS011;52601;53.070;10.600;2022-11-15T12:59:06;3.47;;;2.30;;
33188;SDS011;52601;53.070;10.600;2022-11-15T13:01:54;2.95;;;2.05;;
33188;SDS011;52601;53.070;10.600;2022-11-15T13:04:42;3.05;;;2.13;;
33188;SDS011;52601;53.070;10.600;2022-11-15T13:13:12;4.20;;;2.00;;
33188;SDS011;52601;53.070;10.600;2022-11-15T13:16:28;3.05;;;1.90;;
33188;SDS011;52601;53.070;10.600;2022-11-15T13:19:14;5.38;;;2.20;;
33188;SDS011;52601;53.070;10.600;2022-11-15T13:21:59;3.03;;;2.15;;
33188;SDS011;52601;53.070;10.600;2022-11-15T13:25:16;3.83;;;2.20;;
33188;SDS011;52601;53.070;10.600;2022-11-15T13:31:36;3.05;;;2.15;;
33188;SDS011;52601;53.070;10.600;2022-11-15T13:34:28;3.90;;;2.08;;
33188;SDS011;52601;53.070;10.600;2022-11-15T13:37:35;5.97;;;2.53;;
33188;SDS011;52601;53.070;10.600;2022-11-15T13:40:28;3.28;;;1.98;;
33188;SDS011;52601;53.070;10.600;2022-11-15T13:49:02;4.82;;;2.30;;
33188;SDS011;52601;53.070;10.600;2022-11-15T13:51:50;3.13;;;1.95;;
33188;SDS011;52601;53.070;10.600;2022-11-15T13:54:41;3.50;;;2.55;;
33188;SDS011;52601;53.070;10.600;2022-11-15T13:57:37;3.80;;;2.22;;
33188;SDS011;52601;53.070;10.600;2022-11-15T14:00:37;3.60;;;2.27;;
33188;SDS011;52601;53.070;10.600;2022-11-15T14:03:30;3.78;;;1.98;;
33188;SDS011;52601;53.070;10.600;2022-11-15T14:06:18;5.05;;;2.20;;
33188;SDS011;52601;53.070;10.600;2022-11-15T14:11:55;3.37;;;2.13;;
33188;SDS011;52601;53.070;10.600;2022-11-15T14:14:45;4.32;;;2.40;;
33188;SDS011;52601;53.070;10.600;2022-11-15T14:17:35;4.60;;;2.20;;
33188;SDS011;52601;53.070;10.600;2022-11-15T14:23:23;2.28;;;1.80;;
33188;SDS011;52601;53.070;10.600;2022-11-15T14:26:32;6.38;;;2.42;;
33188;SDS011;52601;53.070;10.600;2022-11-15T14:32:18;4.53;;;2.50;;
33188;SDS011;52601;53.070;10.600;2022-11-15T14:35:10;3.10;;;2.13;;
33188;SDS011;52601;53.070;10.600;2022-11-15T14:38:00;4.77;;;2.30;;
33188;SDS011;52601;53.070;10.600;2022-11-15T14:40:45;2.75;;;2.00;;
33188;SDS011;52601;53.070;10.600;2022-11-15T14:43:31;3.55;;;2.35;;
33188;SDS011;52601;53.070;10.600;2022-11-15T14:46:17;3.95;;;2.20;;
33188;SDS011;52601;53.070;10.600;2022-11-15T14:49:03;3.30;;;1.95;;
33188;SDS011;52601;53.070;10.600;2022-11-15T14:51:48;4.18;;;2.47;;
33188;SDS011;52601;53.070;10.600;2022-11-15T14:54:34;2.37;;;1.63;;
33188;SDS011;52601;53.070;10.600;2022-11-15T14:57:20;2.85;;;1.92;;
33188;SDS011;52601;53.070;10.600;2022-11-15T15:00:06;2.63;;;2.10;;
33188;SDS011;52601;53.070;10.600;2022-11-15T15:02:53;4.18;;;2.33;;
33188;SDS011;52601;53.070;10.600;2022-11-15T15:05:42;2.67;;;2.13;;
33188;SDS011;52601;53.070;10.600;2022-11-15T15:08:28;3.90;;;2.08;;
33188;SDS011;52601;53.070;10.600;2022-11-15T15:11:16;3.78;;;2.30;;
33188;SDS011;52601;53.070;10.600;2022-11-15T15:14:06;4.30;;;2.60;;
33188;SDS011;52601;53.070;10.600;2022-11-15T15:16:52;3.42;;;1.98;;
33188;SDS011;52601;53.070;10.600;2022-11-15T15:19:38;3.60;;;2.15;;
33188;SDS011;52601;53.070;10.600;2022-11-15T15:22:23;3.58;;;2.30;;
33188;SDS011;52601;53.070;10.600;2022-11-15T15:25:21;4.00;;;2.30;;
33188;SDS011;52601;53.070;10.600;2022-11-15T15:28:16;3.08;;;2.03;;
33188;SDS011;52601;53.070;10.600;2022-11-15T15:31:02;3.50;;;2.15;;
33188;SDS011;52601;53.070;10.600;2022-11-15T15:33:47;3.30;;;2.05;;
33188;SDS011;52601;53.070;10.600;2022-11-15T15:36:33;4.10;;;2.58;;
33188;SDS011;52601;53.070;10.600;2022-11-15T15:39:18;3.63;;;2.20;;
33188;SDS011;52601;53.070;10.600;2022-11-15T15:42:04;4.00;;;2.25;;
33188;SDS011;52601;53.070;10.600;2022-11-15T15:44:50;4.18;;;2.40;;
33188;SDS011;52601;53.070;10.600;2022-11-15T15:47:35;4.07;;;2.20;;
33188;SDS011;52601;53.070;10.600;2022-11-15T15:50:23;4.60;;;2.25;;
33188;SDS011;52601;53.070;10.600;2022-11-15T15:53:17;3.95;;;2.22;;
33188;SDS011;52601;53.070;10.600;2022-11-15T15:56:03;4.20;;;2.00;;
33188;SDS011;52601;53.070;10.600;2022-11-15T15:58:49;5.47;;;2.55;;
33188;SDS011;52601;53.070;10.600;2022-11-15T16:01:34;4.15;;;2.10;;
33188;SDS011;52601;53.070;10.600;2022-11-15T16:04:19;5.60;;;2.67;;
33188;SDS011;52601;53.070;10.600;2022-11-15T16:07:23;4.55;;;2.38;;
33188;SDS011;52601;53.070;10.600;2022-11-15T16:10:30;5.72;;;2.72;;
33188;SDS011;52601;53.070;10.600;2022-11-15T16:13:17;5.00;;;2.30;;
33188;SDS011;52601;53.070;10.600;2022-11-15T16:16:02;4.32;;;2.72;;
33188;SDS011;52601;53.070;10.600;2022-11-15T16:18:48;4.55;;;2.40;;
33188;SDS011;52601;53.070;10.600;2022-11-15T16:21:36;4.18;;;2.80;;
33188;SDS011;52601;53.070;10.600;2022-11-15T16:24:44;5.30;;;2.70;;
33188;SDS011;52601;53.070;10.600;2022-11-15T16:27:35;4.65;;;2.63;;
33188;SDS011;52601;53.070;10.600;2022-11-15T16:30:23;7.43;;;3.33;;
33188;SDS011;52601;53.070;10.600;2022-11-15T16:33:09;4.72;;;2.63;;
33188;SDS011;52601;53.070;10.600;2022-11-15T16:35:54;4.90;;;2.90;;
33188;SDS011;52601;53.070;10.600;2022-11-15T16:38:40;3.60;;;2.60;;
33188;SDS011;52601;53.070;10.600;2022-11-15T16:41:25;6.07;;;2.85;;
33188;SDS011;52601;53.070;10.600;2022-11-15T16:44:11;4.32;;;2.45;;
33188;SDS011;52601;53.070;10.600;2022-11-15T16:46:57;5.63;;;3.72;;
33188;SDS011;52601;53.070;10.600;2022-11-15T16:49:43;5.63;;;2.90;;
33188;SDS011;52601;53.070;10.600;2022-11-15T16:52:29;4.87;;;2.60;;
33188;SDS011;52601;53.070;10.600;2022-11-15T16:55:14;6.37;;;3.23;;
33188;SDS011;52601;53.070;10.600;2022-11-15T16:58:00;4.13;;;2.47;;
33188;SDS011;52601;53.070;10.600;2022-11-15T17:00:49;6.72;;;3.17;;
33188;SDS011;52601;53.070;10.600;2022-11-15T17:03:38;5.70;;;3.38;;
33188;SDS011;52601;53.070;10.600;2022-11-15T17:06:24;4.65;;;2.97;;
33188;SDS011;52601;53.070;10.600;2022-11-15T17:09:14;5.53;;;2.67;;
33188;SDS011;52601;53.070;10.600;2022-11-15T17:12:02;5.35;;;2.47;;
33188;SDS011;52601;53.070;10.600;2022-11-15T17:14:47;6.30;;;3.35;;
33188;SDS011;52601;53.070;10.600;2022-11-15T17:17:33;4.35;;;2.35;;
33188;SDS011;52601;53.070;10.600;2022-11-15T17:20:19;6.38;;;3.60;;
33188;SDS011;52601;53.070;10.600;2022-11-15T17:23:09;4.85;;;3.08;;
33188;SDS011;52601;53.070;10.600;2022-11-15T17:25:59;5.77;;;2.50;;
33188;SDS011;52601;53.070;10.600;2022-11-15T17:29:05;3.35;;;2.20;;
33188;SDS011;52601;53.070;10.600;2022-11-15T17:31:53;5.07;;;3.10;;
33188;SDS011;52601;53.070;10.600;2022-11-15T17:34:38;5.95;;;3.15;;
33188;SDS011;52601;53.070;10.600;2022-11-15T17:37:24;5.95;;;3.42;;
33188;SDS011;52601;53.070;10.600;2022-11-15T17:40:09;9.68;;;2.70;;
33188;SDS011;52601;53.070;10.600;2022-11-15T17:42:55;8.40;;;4.20;;
33188;SDS011;52601;53.070;10.600;2022-11-15T17:45:41;3.50;;;2.08;;
33188;SDS011;52601;53.070;10.600;2022-11-15T17:48:26;5.25;;;2.35;;
33188;SDS011;52601;53.070;10.600;2022-11-15T17:51:15;4.20;;;2.42;;
33188;SDS011;52601;53.070;10.600;2022-11-15T17:54:02;7.22;;;4.70;;
33188;SDS011;52601;53.070;10.600;2022-11-15T17:56:47;5.18;;;2.97;;
33188;SDS011;52601;53.070;10.600;2022-11-15T17:59:33;3.78;;;2.30;;
33188;SDS011;52601;53.070;10.600;2022-11-15T18:02:21;6.20;;;3.42;;
33188;SDS011;52601;53.070;10.600;2022-11-15T18:05:06;6.95;;;3.15;;
33188;SDS011;52601;53.070;10.600;2022-11-15T18:07:51;6.07;;;3.40;;
33188;SDS011;52601;53.070;10.600;2022-11-15T18:10:37;9.02;;;3.80;;
33188;SDS011;52601;53.070;10.600;2022-11-15T18:13:22;11.20;;;3.00;;
33188;SDS011;52601;53.070;10.600;2022-11-15T18:16:09;7.30;;;3.42;;
33188;SDS011;52601;53.070;10.600;2022-11-15T18:18:56;7.97;;;4.50;;
33188;SDS011;52601;53.070;10.600;2022-11-15T18:21:43;4.78;;;3.05;;
33188;SDS011;52601;53.070;10.600;2022-11-15T18:24:43;5.18;;;3.33;;
33188;SDS011;52601;53.070;10.600;2022-11-15T18:27:31;6.18;;;4.00;;
33188;SDS011;52601;53.070;10.600;2022-11-15T18:30:17;10.48;;;6.60;;
33188;SDS011;52601;53.070;10.600;2022-11-15T18:33:02;3.50;;;2.38;;
33188;SDS011;52601;53.070;10.600;2022-11-15T18:35:48;4.30;;;2.53;;
33188;SDS011;52601;53.070;10.600;2022-11-15T18:38:33;3.83;;;2.75;;
33188;SDS011;52601;53.070;10.600;2022-11-15T18:41:19;3.47;;;2.47;;
33188;SDS011;52601;53.070;10.600;2022-11-15T18:44:09;4.07;;;2.35;;
33188;SDS011;52601;53.070;10.600;2022-11-15T18:46:54;4.60;;;2.40;;
33188;SDS011;52601;53.070;10.600;2022-11-15T18:49:40;9.98;;;6.18;;
33188;SDS011;52601;53.070;10.600;2022-11-15T18:52:25;21.23;;;11.32;;
33188;SDS011;52601;53.070;10.600;2022-11-15T18:55:11;17.45;;;8.35;;
33188;SDS011;52601;53.070;10.600;2022-11-15T18:57:58;8.98;;;3.90;;
33188;SDS011;52601;53.070;10.600;2022-11-15T19:00:43;21.13;;;10.85;;
33188;SDS011;52601;53.070;10.600;2022-11-15T19:03:32;28.58;;;13.38;;
33188;SDS011;52601;53.070;10.600;2022-11-15T19:06:23;10.80;;;6.00;;
33188;SDS011;52601;53.070;10.600;2022-11-15T19:09:16;12.73;;;6.50;;
33188;SDS011;52601;53.070;10.600;2022-11-15T19:12:03;7.00;;;3.80;;
33188;SDS011;52601;53.070;10.600;2022-11-15T19:14:48;4.32;;;2.75;;
33188;SDS011;52601;53.070;10.600;2022-11-15T19:17:34;4.25;;;2.65;;
33188;SDS011;52601;53.070;10.600;2022-11-15T19:20:19;9.50;;;5.10;;
33188;SDS011;52601;53.070;10.600;2022-11-15T19:23:05;6.88;;;3.42;;
33188;SDS011;52601;53.070;10.600;2022-11-15T19:25:54;10.80;;;4.95;;
33188;SDS011;52601;53.070;10.600;2022-11-15T19:28:41;4.80;;;2.85;;
33188;SDS011;52601;53.070;10.600;2022-11-15T19:31:28;6.67;;;3.20;;
33188;SDS011;52601;53.070;10.600;2022-11-15T19:34:16;6.30;;;2.70;;
33188;SDS011;52601;53.070;10.600;2022-11-15T19:37:02;9.35;;;5.22;;
33188;SDS011;52601;53.070;10.600;2022-11-15T19:39:47;4.82;;;2.72;;
33188;SDS011;52601;53.070;10.600;2022-11-15T19:42:33;17.95;;;8.95;;
33188;SDS011;52601;53.070;10.600;2022-11-15T19:45:19;5.53;;;3.53;;
33188;SDS011;52601;53.070;10.600;2022-11-15T19:48:04;5.60;;;3.00;;
33188;SDS011;52601;53.070;10.600;2022-11-15T19:50:50;4.55;;;2.65;;
33188;SDS011;52601;53.070;10.600;2022-11-15T19:53:36;5.73;;;3.20;;
33188;SDS011;52601;53.070;10.600;2022-11-15T19:56:23;4.53;;;3.20;;
33188;SDS011;52601;53.070;10.600;2022-11-15T19:59:09;6.05;;;3.50;;
33188;SDS011;52601;53.070;10.600;2022-11-15T20:01:56;7.00;;;3.63;;
33188;SDS011;52601;53.070;10.600;2022-11-15T20:04:41;5.45;;;3.50;;
33188;SDS011;52601;53.070;10.600;2022-11-15T20:07:27;4.95;;;2.90;;
33188;SDS011;52601;53.070;10.600;2022-11-15T20:10:12;6.28;;;3.85;;
33188;SDS011;52601;53.070;10.600;2022-11-15T20:13:03;6.33;;;3.33;;
33188;SDS011;52601;53.070;10.600;2022-11-15T20:15:49;5.65;;;3.50;;
33188;SDS011;52601;53.070;10.600;2022-11-15T20:18:42;5.67;;;3.40;;
33188;SDS011;52601;53.070;10.600;2022-11-15T20:21:28;5.13;;;3.38;;
33188;SDS011;52601;53.070;10.600;2022-11-15T20:24:14;4.45;;;3.08;;
33188;SDS011;52601;53.070;10.600;2022-11-15T20:26:59;6.70;;;3.70;;
33188;SDS011;52601;53.070;10.600;2022-11-15T20:29:45;11.35;;;4.93;;
33188;SDS011;52601;53.070;10.600;2022-11-15T20:32:32;6.07;;;3.88;;
33188;SDS011;52601;53.070;10.600;2022-11-15T20:35:18;5.80;;;3.97;;
33188;SDS011;52601;53.070;10.600;2022-11-15T20:38:07;9.43;;;4.65;;